Time;durP1;ratioP1;P1;durP2;ratioP2;P2;SDS_P1;SDS_P2;PMS_P1;PMS_P2;Temp;Humidity;BMP_temperature;BMP_pressure;BME280_temperature;BME280_humidity;BME280_pressure;Samples;Min_cycle;Max_cycle;Signal;HPM_P1;HPM_P2
2021/03/26 00:01:44;;;;;;;332.07;142.73;;;;;;;3.03;70.03;99080.36;469330;1196;103280;-42
2021/03/26 00:11:50;;;;;;;314.10;132.90;;;;;;;3.01;70.59;99086.73;469401;1196;103245;-41
2021/03/26 00:21:55;;;;;;;320.40;133.33;;;;;;;2.92;70.28;99087.77;469048;1196;104721;-42
2021/03/26 00:31:59;;;;;;;343.50;143.70;;;;;;;2.76;70.70;99088.63;468752;1196;103210;-43
2021/03/26 00:42:06;;;;;;;295.57;127.57;;;;;;;2.62;70.75;99076.29;469409;1196;103191;-42
2021/03/26 00:52:10;;;;;;;306.60;129.50;;;;;;;2.56;71.00;99072.53;469105;1196;103297;-40
2021/03/26 01:14:28;;;;;;;316.25;133.60;;;;;;;2.34;72.08;99073.23;469234;1196;103500;-44
2021/03/26 01:24:33;;;;;;;309.00;134.10;;;;;;;2.17;72.80;99072.47;468942;1196;103246;-41
2021/03/26 01:34:37;;;;;;;306.80;129.23;;;;;;;2.18;72.84;99076.70;468518;1196;103213;-41
2021/03/26 01:44:42;;;;;;;348.97;139.40;;;;;;;2.17;72.51;99082.08;468915;1196;103239;-41
2021/03/26 01:54:47;;;;;;;323.13;138.13;;;;;;;2.13;72.32;99084.21;468901;1196;103235;-41
2021/03/26 02:04:54;;;;;;;313.60;139.73;;;;;;;2.00;72.79;99089.09;468919;1196;103702;-40
2021/03/26 02:15:10;;;;;;;319.90;137.30;;;;;;;1.88;72.58;99083.38;469088;1196;103153;-43
2021/03/26 02:25:35;;;;;;;332.10;139.65;;;;;;;1.73;73.21;99085.02;469193;1165;103152;-41
2021/03/26 02:35:44;;;;;;;305.60;127.27;;;;;;;1.64;73.32;99089.39;469122;1199;103408;-43
2021/03/26 02:45:52;;;;;;;297.50;125.43;;;;;;;1.65;73.35;99082.38;469108;1200;103641;-41
2021/03/26 02:55:57;;;;;;;300.47;121.07;;;;;;;1.66;73.30;99089.26;468546;1200;103219;-40
2021/03/26 03:06:07;;;;;;;277.10;113.87;;;;;;;1.66;73.49;99095.28;468839;1199;103575;-43
2021/03/26 03:16:12;;;;;;;291.80;124.50;;;;;;;1.59;74.19;99091.67;468752;1199;104672;-39
2021/03/26 03:26:16;;;;;;;292.30;124.17;;;;;;;1.66;74.16;99094.47;468220;1200;103242;-43
2021/03/26 03:36:25;;;;;;;290.90;125.00;;;;;;;1.70;74.34;99091.38;469065;1200;103273;-44
2021/03/26 03:46:33;;;;;;;300.73;122.93;;;;;;;1.70;74.61;99093.98;468920;1200;103526;-42
2021/03/26 03:56:39;;;;;;;301.20;131.10;;;;;;;1.70;75.69;99090.56;469116;1199;103264;-41
2021/03/26 04:06:44;;;;;;;280.45;118.05;;;;;;;1.74;75.49;99092.67;468650;1199;103197;-42
2021/03/26 04:16:59;;;;;;;286.55;122.50;;;;;;;1.90;75.71;99099.70;469114;1200;103286;-42
2021/03/26 04:27:06;;;;;;;289.40;121.80;;;;;;;1.95;76.04;99107.03;468943;1200;103337;-43
2021/03/26 04:37:19;;;;;;;273.65;117.85;;;;;;;1.93;75.89;99098.56;469184;1199;103216;-41
2021/03/26 04:47:27;;;;;;;285.95;124.40;;;;;;;1.90;76.13;99104.92;468957;1199;103677;-41
2021/03/26 04:57:32;;;;;;;278.70;118.80;;;;;;;2.01;76.08;99106.38;469114;1198;103181;-40
2021/03/26 05:07:41;;;;;;;281.30;121.05;;;;;;;2.03;76.35;99105.23;469091;1199;103219;-41
2021/03/26 05:17:45;;;;;;;258.55;116.30;;;;;;;2.02;76.39;99100.99;468753;1200;104681;-42
2021/03/26 05:38:23;;;;;;;271.40;120.60;;;;;;;2.70;76.49;99113.63;469071;1200;103541;-40
2021/03/26 05:48:32;;;;;;;271.67;119.97;;;;;;;3.48;76.49;99111.98;468567;1200;103340;-41
2021/03/26 05:58:44;;;;;;;238.40;110.20;;;;;;;3.88;75.95;99118.77;469249;1199;103226;-40
2021/03/26 06:09:14;;;;;;;235.10;106.80;;;;;;;3.82;75.83;99122.09;468677;1200;103220;-40
2021/03/26 06:19:53;;;;;;;252.28;112.00;;;;;;;3.79;75.77;99119.83;469000;1200;103229;-41
2021/03/26 06:30:02;;;;;;;233.98;106.45;;;;;;;3.86;75.84;99118.94;468705;1200;103629;-41
2021/03/26 06:40:26;;;;;;;;;;;;;;;4.50;75.95;99136.91;468900;1205;103571;-41
2021/03/26 06:50:38;;;;;;;279.47;124.63;;;;;;;5.62;75.01;99132.31;468361;1198;103312;-42
2021/03/26 07:00:56;;;;;;;282.50;131.60;;;;;;;6.58;73.89;99134.42;468679;1200;103275;-41
2021/03/26 07:11:08;;;;;;;282.30;131.37;;;;;;;7.34;71.98;99134.47;468920;1197;104633;-41
2021/03/26 07:21:15;;;;;;;251.20;117.45;;;;;;;7.45;71.89;99139.16;469278;1199;103341;-41
2021/03/26 07:31:27;;;;;;;229.10;106.30;;;;;;;7.27;71.58;99137.05;468888;1199;103199;-41
2021/03/26 07:41:59;;;;;;;236.20;111.13;;;;;;;7.36;71.66;99142.97;468740;1200;103258;-43
2021/03/26 07:52:09;;;;;;;251.50;119.75;;;;;;;7.66;71.29;99132.95;468378;1200;103580;-40
2021/03/26 08:02:18;;;;;;;261.25;120.45;;;;;;;8.06;71.09;99143.58;468225;1200;104626;-42
2021/03/26 08:12:33;;;;;;;209.45;101.30;;;;;;;8.28;70.76;99148.46;468437;1200;103230;-40
2021/03/26 08:22:42;;;;;;;209.00;101.30;;;;;;;8.30;70.49;99166.70;468967;1198;103216;-41
2021/03/26 08:32:59;;;;;;;246.60;117.30;;;;;;;8.21;70.01;99179.23;469003;1199;103607;-41
2021/03/26 08:43:08;;;;;;;223.50;105.55;;;;;;;8.21;70.21;99183.69;468700;1199;103668;-42
2021/03/26 09:03:52;;;;;;;201.20;98.45;;;;;;;8.32;70.33;99204.19;468956;1199;103588;-41
2021/03/26 09:14:21;;;;;;;205.87;101.90;;;;;;;8.45;70.39;99201.58;468884;1200;103211;-41
2021/03/26 09:24:42;;;;;;;206.63;100.10;;;;;;;8.70;70.60;99203.62;468134;1199;103257;-42
2021/03/26 09:34:47;;;;;;;195.33;96.33;;;;;;;8.95;70.53;99201.16;468905;1199;103661;-43
2021/03/26 09:44:58;;;;;;;211.47;99.33;;;;;;;9.46;70.79;99188.89;468783;1200;103219;-41
2021/03/26 09:55:04;;;;;;;184.43;93.87;;;;;;;10.36;69.99;99179.06;468500;1199;104620;-40
2021/03/26 10:05:08;;;;;;;168.00;87.43;;;;;;;10.99;68.69;99168.36;468606;1199;103625;-43
2021/03/26 10:15:21;;;;;;;170.70;89.87;;;;;;;11.90;68.07;99162.22;468944;1199;104389;-42
2021/03/26 10:25:30;;;;;;;167.30;86.05;;;;;;;12.49;66.74;99167.66;468630;1199;103219;-40
2021/03/26 10:35:37;;;;;;;140.23;78.80;;;;;;;13.15;65.26;99150.58;468472;1199;103638;-42
2021/03/26 10:46:02;;;;;;;129.60;73.90;;;;;;;13.48;63.19;99147.30;468928;1200;104285;-41
2021/03/26 10:56:25;;;;;;;110.07;64.67;;;;;;;13.95;60.83;99128.50;468267;1199;103223;-42
2021/03/26 11:06:28;;;;;;;114.00;63.65;;;;;;;14.33;60.72;99117.19;469187;1199;103360;-43
2021/03/26 11:16:34;;;;;;;79.10;48.37;;;;;;;14.70;58.40;99106.89;469126;1198;103216;-41
2021/03/26 11:37:06;;;;;;;95.30;50.25;;;;;;;15.35;55.88;99082.94;468333;1199;103280;-42
2021/03/26 11:47:32;;;;;;;82.75;49.25;;;;;;;15.56;52.11;99069.83;468912;1199;103143;-43
2021/03/26 11:57:42;;;;;;;70.03;43.67;;;;;;;15.73;51.12;99062.58;469032;1199;103204;-41
2021/03/26 12:07:49;;;;;;;80.23;45.53;;;;;;;15.87;53.33;99050.45;468839;1198;103526;-42
2021/03/26 12:18:03;;;;;;;73.43;47.70;;;;;;;16.18;51.01;99038.16;468791;1199;103233;-43
2021/03/26 12:28:10;;;;;;;72.25;44.20;;;;;;;16.03;51.68;99037.23;469251;1200;103247;-42
2021/03/26 12:38:31;;;;;;;67.97;39.97;;;;;;;15.64;52.25;99021.45;468938;1199;103555;-44
2021/03/26 12:48:34;;;;;;;69.27;44.37;;;;;;;15.83;52.45;99011.19;469020;1197;103305;-43
2021/03/26 12:58:51;;;;;;;66.43;42.40;;;;;;;15.51;49.72;99009.30;468069;1198;104799;-41
2021/03/26 13:09:05;;;;;;;79.40;43.55;;;;;;;15.39;51.01;99005.99;469036;1200;103600;-42
2021/03/26 13:19:15;;;;;;;71.85;44.25;;;;;;;15.27;49.32;98992.80;468738;1199;103575;-41
2021/03/26 13:29:26;;;;;;;68.00;40.70;;;;;;;14.96;50.26;98999.67;468755;1199;103150;-41
2021/03/26 13:39:32;;;;;;;71.30;42.20;;;;;;;14.82;50.41;98985.11;468450;1200;103210;-42
2021/03/26 13:49:46;;;;;;;63.63;39.07;;;;;;;14.95;49.95;98981.28;468788;1200;103271;-43
2021/03/26 13:59:49;;;;;;;76.80;46.80;;;;;;;14.77;51.03;98977.08;469199;1200;103219;-41
2021/03/26 14:09:55;;;;;;;62.65;39.60;;;;;;;14.77;51.67;98965.63;468865;1199;103258;-41
2021/03/26 14:20:11;;;;;;;67.30;37.60;;;;;;;14.92;51.52;98958.63;468441;1200;103596;-43
2021/03/26 14:30:23;;;;;;;60.70;33.05;;;;;;;15.05;48.29;98944.09;469001;1200;104505;-43
2021/03/26 14:40:30;;;;;;;57.67;35.27;;;;;;;15.13;49.21;98932.98;468966;1199;103254;-42
2021/03/26 14:50:36;;;;;;;65.60;36.63;;;;;;;15.10;49.30;98925.50;468605;1199;103529;-43
2021/03/26 15:00:41;;;;;;;71.27;42.50;;;;;;;15.33;48.39;98916.39;468562;1200;104716;-43
2021/03/26 15:10:48;;;;;;;65.20;38.40;;;;;;;15.22;48.33;98920.83;468518;1200;103539;-41
2021/03/26 15:20:59;;;;;;;83.70;48.73;;;;;;;14.78;47.98;98914.80;468785;1199;103222;-42
2021/03/26 15:31:40;;;;;;;82.60;45.47;;;;;;;14.29;49.31;98924.55;468609;1199;103641;-41
2021/03/26 15:41:54;;;;;;;78.15;45.95;;;;;;;14.01;50.05;98920.99;468592;1200;103149;-41
2021/03/26 15:52:00;;;;;;;76.63;45.53;;;;;;;13.93;50.32;98918.73;469060;1198;103232;-41
2021/03/26 16:02:43;;;;;;;81.27;46.50;;;;;;;13.82;51.18;98911.67;468892;1199;103561;-41
2021/03/26 16:23:33;;;;;;;93.28;53.00;;;;;;;13.74;51.81;98909.43;468588;1199;104755;-41
2021/03/26 16:33:57;;;;;;;107.97;52.23;;;;;;;13.50;52.20;98909.60;468823;1200;103191;-43
2021/03/26 16:44:23;;;;;;;47.60;27.75;;;;;;;13.27;52.15;98906.29;468839;1199;103229;-40
2021/03/26 16:54:28;;;;;;;81.97;38.03;;;;;;;12.91;51.80;98895.00;468404;1200;103533;-44
2021/03/26 17:15:01;;;;;;;62.75;31.40;;;;;;;11.99;53.04;98910.92;468874;1200;103562;-43
2021/03/26 17:25:45;;;;;;;103.87;38.57;;;;;;;11.51;53.47;98911.92;469184;1199;104886;-42
2021/03/26 17:36:12;;;;;;;72.95;39.25;;;;;;;11.06;54.10;98908.94;469132;1200;103235;-42
2021/03/26 17:46:29;;;;;;;82.53;43.47;;;;;;;10.75;54.31;98915.28;468968;1199;103242;-41
2021/03/26 17:57:08;;;;;;;115.23;58.77;;;;;;;10.57;54.91;98921.39;469204;1200;103603;-41
2021/03/26 18:07:19;;;;;;;;;;;;;;;10.33;55.57;98944.24;468932;1204;103197;-41
2021/03/26 18:17:46;;;;;;;125.30;68.80;;;;;;;10.08;55.99;98949.55;469177;1199;103702;-40
2021/03/26 18:28:26;;;;;;;197.10;89.60;;;;;;;9.68;56.24;98938.53;468744;1199;103661;-41
2021/03/26 18:38:37;;;;;;;153.60;79.50;;;;;;;9.52;56.76;98936.45;469095;1200;103507;-44
2021/03/26 18:48:57;;;;;;;159.80;86.43;;;;;;;9.24;57.26;98944.78;468582;1199;104339;-42
2021/03/26 18:59:05;;;;;;;148.23;78.87;;;;;;;9.16;57.40;98950.29;468498;1199;103210;-42
2021/03/26 19:09:27;;;;;;;153.60;78.13;;;;;;;9.18;57.87;98942.97;468127;1200;103526;-41
2021/03/26 19:19:39;;;;;;;138.00;71.50;;;;;;;9.33;58.13;98950.59;469044;1200;103187;-43
2021/03/26 19:29:42;;;;;;;139.60;69.95;;;;;;;9.37;58.49;98949.14;468743;1200;103213;-41
2021/03/26 19:39:49;;;;;;;137.50;68.00;;;;;;;9.35;58.47;98945.91;468711;1200;103622;-43
2021/03/26 19:49:58;;;;;;;123.57;62.93;;;;;;;9.36;58.68;98950.16;468845;1199;103236;-41
2021/03/26 20:00:27;;;;;;;126.65;62.40;;;;;;;9.35;58.59;98953.83;468651;1199;103239;-41
2021/03/26 20:10:33;;;;;;;131.85;63.55;;;;;;;9.26;58.57;98950.65;467693;1200;103497;-42
2021/03/26 20:20:45;;;;;;;147.63;75.57;;;;;;;9.08;58.83;98955.83;467838;1199;103210;-43
2021/03/26 20:30:53;;;;;;;155.50;80.60;;;;;;;8.87;59.17;98968.30;468733;1199;104687;-41
2021/03/26 20:41:05;;;;;;;169.60;76.50;;;;;;;8.76;59.41;98960.26;469169;1200;103239;-43
2021/03/26 20:51:21;;;;;;;144.27;70.23;;;;;;;8.67;59.91;98946.48;469284;1198;103606;-42
2021/03/26 21:01:27;;;;;;;126.50;63.35;;;;;;;8.64;60.25;98933.73;468706;1200;103296;-41
2021/03/26 21:11:36;;;;;;;112.33;56.10;;;;;;;8.65;60.44;98931.90;468830;1199;103156;-43
2021/03/26 21:21:45;;;;;;;104.70;51.05;;;;;;;8.66;60.70;98930.88;468304;1199;103335;-40
2021/03/26 21:31:50;;;;;;;108.70;53.70;;;;;;;8.65;60.81;98923.99;468823;1199;103257;-43
2021/03/26 21:41:57;;;;;;;113.57;58.97;;;;;;;8.61;60.93;98926.24;468637;1199;103338;-40
2021/03/26 21:52:41;;;;;;;129.40;67.60;;;;;;;8.40;61.26;98923.89;467834;1199;103267;-42
2021/03/26 22:03:20;;;;;;;133.80;71.85;;;;;;;8.24;61.49;98915.39;468938;1200;103564;-43
2021/03/26 22:13:40;;;;;;;130.78;71.33;;;;;;;8.07;61.76;98922.14;469028;1200;103241;-40
2021/03/26 22:23:47;;;;;;;103.80;56.13;;;;;;;7.98;62.05;98923.35;468678;1200;103242;-42
2021/03/26 22:33:52;;;;;;;94.53;51.23;;;;;;;7.92;62.51;98916.28;469221;1199;103568;-41
2021/03/26 22:44:19;;;;;;;83.80;43.67;;;;;;;7.95;62.82;98914.05;468987;1199;103574;-42
2021/03/26 22:54:34;;;;;;;89.20;42.73;;;;;;;7.90;63.18;98903.33;468481;1198;103584;-41
2021/03/26 23:04:40;;;;;;;115.50;56.15;;;;;;;7.79;63.93;98903.13;469056;1199;103302;-43
2021/03/26 23:14:49;;;;;;;118.87;59.27;;;;;;;7.67;64.29;98895.06;468501;1199;103270;-41
2021/03/26 23:24:58;;;;;;;;;;;;;;;7.54;64.56;98895.05;469044;1205;104636;-41
2021/03/26 23:35:09;;;;;;;127.20;58.20;;;;;;;7.34;64.81;98882.73;468455;1200;103578;-44
2021/03/26 23:45:20;;;;;;;102.97;52.57;;;;;;;7.24;65.22;98874.42;468372;1200;103152;-42
2021/03/26 23:55:28;;;;;;;113.37;53.03;;;;;;;7.09;65.81;98877.23;468896;1199;103264;-41
